createdAt,value
2022-11-30T00:04:40.296Z,10.43
2022-11-30T00:10:03.806Z,12.13
2022-11-30T00:15:28.368Z,11.70
2022-11-30T00:20:51.581Z,10.17
2022-11-30T00:26:18.598Z,18.73
2022-11-30T00:31:43.203Z,14.03
2022-11-30T00:37:06.369Z,13.57
2022-11-30T00:42:29.575Z,12.83
2022-11-30T00:47:54.173Z,10.27
2022-11-30T00:53:17.497Z,9.80
2022-11-30T00:58:40.939Z,12.57
2022-11-30T01:04:06.092Z,10.17
2022-11-30T01:09:29.338Z,16.00
2022-11-30T01:14:52.609Z,13.73
2022-11-30T01:20:17.502Z,13.50
2022-11-30T01:25:40.765Z,13.23
2022-11-30T01:31:05.445Z,18.77
2022-11-30T01:36:29.996Z,9.97
2022-11-30T01:41:54.632Z,12.83
2022-11-30T01:47:19.297Z,16.33
2022-11-30T01:52:45.883Z,15.00
2022-11-30T01:58:11.746Z,15.03
2022-11-30T02:03:39.579Z,14.57
2022-11-30T02:09:04.619Z,14.97
2022-11-30T02:14:33.208Z,15.17
2022-11-30T02:20:33.262Z,11.67
2022-11-30T02:26:08.065Z,14.23
2022-11-30T02:31:39.724Z,16.37
2022-11-30T02:37:03.499Z,18.10
2022-11-30T02:42:27.435Z,20.27
2022-11-30T02:47:58.729Z,17.27
2022-11-30T02:53:22.335Z,20.17
2022-11-30T02:58:45.769Z,18.00
2022-11-30T03:04:10.441Z,20.23
2022-11-30T03:09:33.726Z,19.57
2022-11-30T03:14:56.884Z,20.03
2022-11-30T03:20:21.498Z,19.33
2022-11-30T03:25:44.777Z,15.77
2022-11-30T03:31:08.048Z,20.13
2022-11-30T03:36:32.689Z,19.23
2022-11-30T03:41:55.989Z,18.07
2022-11-30T03:47:19.507Z,19.20
2022-11-30T03:52:44.112Z,19.93
2022-11-30T03:58:07.756Z,15.33
2022-11-30T04:03:31.772Z,15.23
2022-11-30T04:08:56.329Z,20.57
2022-11-30T04:14:19.636Z,22.83
2022-11-30T04:19:42.996Z,25.93
2022-11-30T04:25:08.810Z,20.87
2022-11-30T04:30:32.204Z,19.83
2022-11-30T04:35:57.487Z,18.97
2022-11-30T04:41:22.105Z,18.17
2022-11-30T04:46:45.524Z,24.83
2022-11-30T04:52:08.797Z,24.17
2022-11-30T04:57:33.435Z,17.40
2022-11-30T05:02:56.991Z,22.60
2022-11-30T05:08:20.388Z,18.13
2022-11-30T05:13:45.028Z,22.30
2022-11-30T05:19:08.205Z,18.27
2022-11-30T05:24:31.474Z,19.53
2022-11-30T05:29:56.097Z,18.20
2022-11-30T05:35:19.307Z,20.17
2022-11-30T05:40:42.455Z,19.80
2022-11-30T05:46:08.802Z,18.83
2022-11-30T05:51:32.025Z,20.17
2022-11-30T05:56:55.512Z,18.60
2022-11-30T06:02:25.129Z,14.63
2022-11-30T06:07:51.216Z,18.33
2022-11-30T06:13:14.822Z,18.87
2022-11-30T06:18:39.462Z,16.50
2022-11-30T06:24:02.717Z,19.77
2022-11-30T06:29:26.020Z,18.13
2022-11-30T06:34:50.629Z,19.83
2022-11-30T06:40:15.133Z,16.00
2022-11-30T06:45:38.572Z,21.40
2022-11-30T06:51:05.808Z,21.87
2022-11-30T06:56:28.988Z,17.30
2022-11-30T07:01:52.237Z,20.23
2022-11-30T07:07:17.077Z,20.57
2022-11-30T07:12:40.436Z,16.07
2022-11-30T07:18:03.623Z,18.70
2022-11-30T07:23:48.402Z,23.63
2022-11-30T07:29:14.153Z,18.73
2022-11-30T07:34:37.410Z,33.63
2022-11-30T07:40:02.035Z,21.73
2022-11-30T07:45:25.318Z,24.03
2022-11-30T07:50:48.698Z,25.83
2022-11-30T07:56:15.332Z,21.27
2022-11-30T08:01:38.665Z,26.27
2022-11-30T08:07:02.078Z,23.57
2022-11-30T08:12:26.801Z,24.83
2022-11-30T08:17:55.134Z,24.50
2022-11-30T08:23:18.364Z,20.97
2022-11-30T08:28:44.041Z,27.70
2022-11-30T08:34:08.931Z,23.00
2022-11-30T08:39:34.489Z,17.77
2022-11-30T08:44:59.292Z,17.00
2022-11-30T08:50:22.960Z,21.30
2022-11-30T08:55:56.406Z,22.47
2022-11-30T09:01:24.156Z,20.60
2022-11-30T09:06:49.266Z,20.20
2022-11-30T09:12:12.539Z,23.27
2022-11-30T09:18:00.614Z,19.13
2022-11-30T09:23:23.757Z,24.60
2022-11-30T09:28:47.958Z,16.33
2022-11-30T09:34:13.374Z,25.87
2022-11-30T09:39:36.572Z,24.27
2022-11-30T09:45:04.605Z,23.70
2022-11-30T09:50:31.464Z,18.53
2022-11-30T09:55:55.219Z,20.63
2022-11-30T10:01:20.028Z,22.10
2022-11-30T10:06:54.812Z,24.00
2022-11-30T10:12:21.830Z,21.53
2022-11-30T10:17:55.466Z,20.67
2022-11-30T10:23:40.744Z,23.27
2022-11-30T10:29:09.060Z,21.13
2022-11-30T10:34:34.819Z,23.20
2022-11-30T10:40:02.310Z,23.87
2022-11-30T10:45:26.340Z,22.50
2022-11-30T10:50:49.649Z,27.43
2022-11-30T10:56:15.187Z,25.47
2022-11-30T11:01:40.443Z,26.40
2022-11-30T11:07:09.969Z,27.73
2022-11-30T11:12:34.655Z,32.67
2022-11-30T11:18:23.466Z,28.50
2022-11-30T11:23:47.332Z,23.97
2022-11-30T11:29:31.309Z,35.93
2022-11-30T11:34:54.585Z,33.07
2022-11-30T11:40:20.933Z,33.70
2022-11-30T11:45:52.266Z,30.17
2022-11-30T11:51:15.392Z,30.67
2022-11-30T11:56:38.762Z,27.70
2022-11-30T12:02:11.867Z,31.50
2022-11-30T12:07:38.437Z,24.10
2022-11-30T12:13:01.834Z,25.77
2022-11-30T12:18:32.039Z,33.53
2022-11-30T12:24:04.044Z,33.70
2022-11-30T12:29:35.846Z,35.83
2022-11-30T12:35:10.499Z,30.27
2022-11-30T12:40:39.110Z,27.43
2022-11-30T12:46:10.713Z,27.83
2022-11-30T12:51:39.172Z,30.07
2022-11-30T12:57:12.185Z,28.77
2022-11-30T13:02:51.230Z,24.13
2022-11-30T13:08:21.424Z,21.07
2022-11-30T13:13:49.138Z,26.80
2022-11-30T13:19:26.046Z,27.53
2022-11-30T13:24:54.595Z,33.93
2022-11-30T13:30:27.989Z,30.83
2022-11-30T13:35:54.907Z,25.60
2022-11-30T13:41:22.280Z,27.50
2022-11-30T13:46:50.296Z,23.07
2022-11-30T13:52:22.670Z,24.33
2022-11-30T13:58:06.809Z,32.43
2022-11-30T14:03:31.419Z,28.77
2022-11-30T14:08:54.606Z,25.23
2022-11-30T14:14:57.348Z,27.90
2022-11-30T14:20:24.457Z,24.90
2022-11-30T14:25:49.075Z,22.63
2022-11-30T14:31:17.788Z,26.40
2022-11-30T14:36:46.002Z,26.73
2022-11-30T14:42:20.340Z,30.70
2022-11-30T14:47:48.016Z,22.10
2022-11-30T14:53:23.588Z,23.73
2022-11-30T14:58:51.732Z,20.57
2022-11-30T15:04:17.215Z,22.70
2022-11-30T15:09:44.174Z,19.93
2022-11-30T15:15:19.836Z,26.33
2022-11-30T15:20:46.107Z,25.17
2022-11-30T15:26:15.489Z,27.30
2022-11-30T15:31:44.716Z,21.50
2022-11-30T15:37:08.149Z,23.40
2022-11-30T15:42:39.873Z,20.80
2022-11-30T15:48:07.359Z,25.50
2022-11-30T15:53:35.999Z,24.87
2022-11-30T15:59:06.178Z,19.40
2022-11-30T16:04:30.042Z,27.93
2022-11-30T16:09:53.365Z,26.87
2022-11-30T16:15:20.422Z,23.27
2022-11-30T16:20:43.718Z,24.50
2022-11-30T16:26:18.342Z,20.50
2022-11-30T16:31:55.042Z,23.33
2022-11-30T16:37:18.305Z,20.77
2022-11-30T16:42:41.919Z,18.67
2022-11-30T16:48:07.657Z,22.20
2022-11-30T16:53:30.902Z,22.47
2022-11-30T16:58:54.708Z,23.10
2022-11-30T17:04:20.850Z,21.60
2022-11-30T17:09:44.118Z,22.53
2022-11-30T17:15:08.522Z,25.37
2022-11-30T17:20:33.193Z,30.03
2022-11-30T17:25:56.530Z,25.23
2022-11-30T17:31:20.086Z,27.90
2022-11-30T17:36:45.113Z,22.23
2022-11-30T17:42:08.326Z,21.20
2022-11-30T17:47:31.521Z,31.40
2022-11-30T17:52:56.198Z,30.80
2022-11-30T17:58:19.404Z,21.23
2022-11-30T18:03:42.557Z,22.43
2022-11-30T18:09:07.346Z,20.53
2022-11-30T18:14:30.589Z,23.43
2022-11-30T18:19:53.801Z,22.03
2022-11-30T18:25:18.791Z,26.93
2022-11-30T18:30:42.007Z,29.00
2022-11-30T18:36:07.728Z,22.80
2022-11-30T18:41:32.648Z,30.87
2022-11-30T18:46:55.842Z,34.30
2022-11-30T18:52:18.952Z,27.10
2022-11-30T18:57:43.632Z,31.17
2022-11-30T19:03:07.070Z,27.17
2022-11-30T19:08:30.357Z,27.63
2022-11-30T19:13:56.339Z,26.43
2022-11-30T19:19:19.642Z,22.87
2022-11-30T19:24:42.971Z,24.77
2022-11-30T19:30:09.356Z,33.87
2022-11-30T19:35:32.861Z,34.90
2022-11-30T19:40:56.232Z,34.03
2022-11-30T19:46:20.965Z,33.33
2022-11-30T19:51:44.215Z,26.10
2022-11-30T19:57:07.549Z,26.97
2022-11-30T20:02:32.252Z,32.67
2022-11-30T20:07:55.535Z,33.87
2022-11-30T20:13:18.872Z,24.40
2022-11-30T20:18:46.327Z,34.43
2022-11-30T20:24:11.976Z,35.70
2022-11-30T20:29:35.392Z,27.23
2022-11-30T20:34:59.996Z,32.27
2022-11-30T20:40:23.779Z,33.07
2022-11-30T20:45:47.155Z,36.73
2022-11-30T20:57:19.276Z,30.40
2022-11-30T21:02:42.605Z,33.33
2022-11-30T21:08:08.419Z,32.20
2022-11-30T21:13:32.670Z,30.70
2022-11-30T21:18:56.475Z,32.67
2022-11-30T21:24:21.180Z,33.43
2022-11-30T21:29:44.408Z,29.33
2022-11-30T21:35:08.983Z,39.00
2022-11-30T21:40:33.582Z,32.80
2022-11-30T21:46:00.846Z,32.67
2022-11-30T21:51:25.700Z,40.63
2022-11-30T21:56:52.368Z,39.37
2022-11-30T22:02:37.386Z,38.63
2022-11-30T22:08:00.725Z,39.27
2022-11-30T22:13:25.269Z,35.87
2022-11-30T22:18:48.662Z,37.43
2022-11-30T22:24:13.784Z,29.10
2022-11-30T22:29:38.438Z,26.17
2022-11-30T22:35:01.930Z,25.53
2022-11-30T22:40:25.132Z,29.83
2022-11-30T22:45:49.767Z,27.07
2022-11-30T22:51:15.010Z,29.50
2022-11-30T22:56:41.390Z,32.13
2022-11-30T23:02:06.191Z,29.57
2022-11-30T23:07:32.203Z,24.30
2022-11-30T23:13:00.109Z,29.13
2022-11-30T23:18:25.039Z,29.60
2022-11-30T23:23:48.654Z,34.80
2022-11-30T23:29:13.557Z,34.40
2022-11-30T23:34:38.559Z,32.53
2022-11-30T23:40:01.825Z,37.10
2022-11-30T23:45:25.038Z,32.57
2022-11-30T23:50:50.793Z,40.30
2022-11-30T23:56:16.733Z,36.17
